Latest Weather Observations for Double Island Point

IDQ60901

Issued at 2:21 pm EST Friday 24 March 2017 (issued every 10 minutes, with the page automatically refreshed every 10 minutes)

About weather observations | Map of Brisbane area stations | Latest observations for Brisbane area | Other Formats
Station Details ID: 040068 Name: DOUBLE ISLAND POINT LIGHTHOUSE Lat: -25.93 Lon: 153.19 Height: 95.64 m
Data from the previous 72 hours. | See also: Recent months at Double Island Point
Date/Time
EST
Temp
°C
App
Temp
°C
Dew
Point
°C
Rel
Hum
%
Delta-T
°C
Wind Press
QNH
hPa
Press
MSL
hPa
Rain since
9am
mm
Dir  Spd
km/h
Gust
km/h
Spd
kts
Gust
kts
24/02:00pm 28.1 33.9 26.1 89 1.4 N 7 9 4 5 1013.5 1013.0 0.0
24/01:30pm 28.4 34.8 26.6 90 1.3 N 6 9 3 5 1013.8 1013.3 0.0
24/01:00pm 28.7 35.1 26.7 89 1.4 N 6 9 3 5 1014.1 1013.6 0.0
24/12:30pm 27.9 33.6 26.5 92 1.0 N 9 13 5 7 1014.6 1014.1 0.0
24/12:00pm 27.0 30.5 26.8 99 0.1 NNE 22 28 12 15 1015.3 1014.8 0.0
24/11:30am 27.2 30.2 27.2 100 0.0 NNE 26 37 14 20 1015.5 1015.0 0.0
24/11:00am 26.5 27.7 26.5 100 0.0 NNE 33 39 18 21 1015.7 1015.2 0.0
24/10:30am 25.8 27.8 25.8 100 0.0 NNE 26 37 14 20 1016.2 1015.7 0.0
24/10:00am 26.8 30.8 26.8 100 0.0 NNE 19 32 10 17 1016.3 1015.8 0.0
24/09:30am 26.9 31.8 26.9 100 0.0 NE 15 24 8 13 1016.2 1015.7 0.0
24/09:00am 26.9 31.0 26.9 100 0.0 ENE 19 30 10 16 1015.7 1015.2 2.0
24/08:30am 25.1 28.4 25.1 100 0.0 SSE 17 24 9 13 1015.6 1015.1 2.0
24/08:00am 25.0 28.2 25.0 100 0.0 S 17 19 9 10 1015.5 1015.0 2.0
24/07:30am 24.4 27.3 24.4 100 0.0 S 17 20 9 11 1015.3 1014.8 2.0
24/07:00am 23.8 26.3 23.8 100 0.0 S 17 19 9 10 1014.9 1014.4 2.0
24/06:30am 23.8 26.3 23.8 100 0.0 S 17 19 9 10 1014.6 1014.1 2.0
24/06:00am 23.7 27.3 23.7 100 0.0 S 11 13 6 7 1014.2 1013.7 2.0
24/05:30am 23.8 27.4 23.8 100 0.0 S 11 13 6 7 1013.9 1013.4 2.0
24/05:00am 23.7 26.9 23.7 100 0.0 S 13 17 7 9 1013.8 1013.3 2.0
24/04:30am 23.9 26.8 23.9 100 0.0 S 15 17 8 9 1013.7 1013.2 2.0
24/04:00am 24.7 28.5 24.7 100 0.0 ESE 13 15 7 8 1013.6 1013.1 2.0
24/03:30am 24.7 28.9 24.7 100 0.0 E 11 13 6 7 1013.5 1013.0 2.0
24/03:00am 24.9 29.6 24.9 100 0.0 E 9 11 5 6 1013.3 1012.9 2.0
24/02:30am 25.0 29.7 25.0 100 0.0 E 9 13 5 7 1013.9 1013.4 2.0
24/02:00am 25.1 29.1 25.1 100 0.0 E 13 15 7 8 1014.3 1013.8 2.0
24/01:30am 24.9 28.4 24.9 100 0.0 E 15 17 8 9 1014.5 1014.0 2.0
24/01:00am 25.0 28.6 25.0 100 0.0 E 15 17 8 9 1014.7 1014.2 2.0
24/12:30am 25.2 28.6 25.2 100 0.0 ENE 17 19 9 10 1014.9 1014.4 2.0
24/12:00am 25.3 29.1 25.3 100 0.0 ENE 15 17 8 9 1015.1 1014.6 2.0
 
Date/Time
EST
Temp
°C
App
Temp
°C
Dew
Point
°C
Rel
Hum
%
Delta-T
°C
Wind Press
QNH
hPa
Press
MSL
hPa
Rain since
9am
mm
Dir  Spd
km/h
Gust
km/h
Spd
kts
Gust
kts
23/11:30pm 25.2 29.3 25.2 100 0.0 ENE 13 17 7 9 1015.4 1014.9 2.0
23/11:00pm 24.9 29.6 24.9 100 0.0 ENE 9 13 5 7 1015.6 1015.1 2.0
23/10:30pm 25.1 28.4 25.1 100 0.0 ESE 17 20 9 11 1015.7 1015.2 1.8
23/10:00pm 25.3 28.3 25.3 100 0.0 E 19 20 10 11 1015.9 1015.4 1.8
23/09:30pm 25.3 28.3 25.3 100 0.0 ESE 19 22 10 12 1016.2 1015.7 1.8
23/09:00pm 25.3 28.1 25.3 100 0.0 ESE 20 24 11 13 1016.2 1015.7 1.8
23/08:30pm 25.2 28.9 25.2 100 0.0 ESE 15 19 8 10 1016.0 1015.5 1.8
23/08:00pm 25.1 28.8 25.1 100 0.0 ESE 15 19 8 10 1015.8 1015.3 1.8
23/07:30pm 25.0 28.6 25.0 100 0.0 SE 15 17 8 9 1015.5 1015.0 1.8
23/07:00pm 24.8 28.7 24.8 100 0.0 SE 13 17 7 9 1015.2 1014.7 1.8
23/06:30pm 24.7 28.9 24.7 100 0.0 ESE 11 13 6 7 1015.0 1014.5 1.8
23/06:00pm 24.6 28.7 24.6 100 0.0 ESE 11 13 6 7 1014.6 1014.1 1.8
23/05:30pm 24.7 31.0 24.7 100 0.0 CALM 0 0 0 0 1014.6 1014.1 1.8
23/05:00pm 24.9 31.3 24.9 100 0.0 CALM 0 0 0 0 1014.4 1013.9 1.8
23/04:30pm 24.9 31.3 24.9 100 0.0 CALM 0 0 0 0 1014.2 1013.7 1.8
23/04:00pm 25.1 31.6 25.1 100 0.0 CALM 0 0 0 0 1014.1 1013.6 1.8
23/03:30pm 25.2 30.6 25.2 100 0.0 N 6 9 3 5 1014.2 1013.7 1.8
23/03:00pm 25.5 31.5 25.5 100 0.0 NNE 4 7 2 4 1014.4 1013.9 1.8
23/02:30pm 25.5 31.5 25.5 100 0.0 NNE 4 7 2 4 1014.4 1013.9 1.8
23/02:00pm 25.4 30.8 25.4 100 0.0 NNE 7 9 4 5 1014.7 1014.2 1.8
23/01:30pm 24.9 30.0 24.9 100 0.0 NNE 7 9 4 5 1014.9 1014.4 1.8
23/01:00pm 25.7 32.6 25.7 100 0.0 CALM 0 0 0 0 1014.8 1014.3 1.8
23/12:30pm 25.4 30.8 25.4 100 0.0 NNE 7 9 4 5 1015.2 1014.7 1.8
23/12:00pm 25.2 31.4 25.2 100 0.0 NNE 2 6 1 3 1015.5 1015.0 1.8
23/11:30am 24.3 29.0 24.3 100 0.0 NNE 7 9 4 5 1016.2 1015.7 1.8
23/11:00am 24.9 29.6 24.9 100 0.0 ENE 9 15 5 8 1016.6 1016.1 1.8
23/10:30am 24.7 28.5 24.7 100 0.0 ENE 13 19 7 10 1016.7 1016.2 1.8
23/10:00am 23.4 25.3 23.4 100 0.0 ENE 19 28 10 15 1016.9 1016.4 1.8
23/09:30am 23.3 23.8 23.3 100 0.0 E 26 32 14 17 1016.8 1016.3 0.2
23/09:00am 23.3 23.0 23.3 100 0.0 E 30 32 16 17 1016.7 1016.2 52.4
23/08:30am 22.9 23.2 22.9 100 0.0 E 26 32 14 17 1016.7 1016.2 52.4
23/08:00am 22.8 23.4 22.8 100 0.0 E 24 32 13 17 1016.3 1015.8 51.8
23/07:30am 22.8 22.6 22.8 100 0.0 ESE 28 32 15 17 1015.8 1015.3 50.8
23/07:00am 22.7 24.0 22.7 100 0.0 ENE 20 28 11 15 1015.8 1015.3 49.2
23/06:30am 22.6 24.4 22.6 100 0.0 NE 17 26 9 14 1015.3 1014.8 47.8
23/06:00am 23.1 24.6 23.1 100 0.0 SSE 20 26 11 14 1015.1 1014.6 46.2
23/05:30am 22.9 25.3 22.9 100 0.0 SSE 15 19 8 10 1014.8 1014.3 45.8
23/05:00am 22.4 24.9 22.4 100 0.0 S 13 17 7 9 1014.5 1014.0 45.8
23/04:30am 22.4 25.3 22.4 100 0.0 ESE 11 15 6 8 1014.4 1013.9 45.4
23/04:00am 21.6 25.7 21.6 100 0.0 NNE 2 7 1 4 1014.2 1013.7 44.2
23/03:30am 22.2 24.6 22.2 100 0.0 NE 13 19 7 10 1014.2 1013.7 31.2
23/03:00am 22.4 24.1 22.4 100 0.0 E 17 24 9 13 1014.0 1013.5 10.6
23/02:30am 24.0 26.2 24.0 100 0.0 S 19 24 10 13 1013.7 1013.2 3.6
23/02:00am 23.8 25.7 23.8 100 0.0 S 20 24 11 13 1013.8 1013.3 3.4
23/01:30am 23.9 26.1 23.9 100 0.0 SSE 19 22 10 12 1014.1 1013.6 3.4
23/01:00am 23.8 25.7 23.8 100 0.0 S 20 24 11 13 1014.4 1013.9 3.4
23/12:30am 23.6 26.0 23.6 100 0.0 S 17 20 9 11 1014.6 1014.1 3.2
23/12:00am 23.4 26.8 23.4 100 0.0 SSE 11 15 6 8 1015.1 1014.6 3.2
 
Date/Time
EST
Temp
°C
App
Temp
°C
Dew
Point
°C
Rel
Hum
%
Delta-T
°C
Wind Press
QNH
hPa
Press
MSL
hPa
Rain since
9am
mm
Dir  Spd
km/h
Gust
km/h
Spd
kts
Gust
kts
22/11:30pm 23.7 28.0 23.7 100 0.0 SSE 7 9 4 5 1015.3 1014.8 3.0
22/11:00pm 23.6 27.5 23.6 100 0.0 NNE 9 11 5 6 1015.5 1015.0 2.6
22/10:30pm 23.7 27.7 23.7 100 0.0 NNE 9 11 5 6 1015.5 1015.0 2.2
22/10:00pm 23.8 29.5 23.8 100 0.0 CALM 0 0 0 0 1015.6 1015.1 2.2
22/09:30pm 23.7 29.4 23.7 100 0.0 CALM 0 0 0 0 1015.7 1015.2 2.2
22/09:00pm 23.7 29.4 23.7 100 0.0 CALM 0 0 0 0 1015.5 1015.0 2.2
22/08:30pm 23.7 28.2 23.7 100 0.0 NNE 6 11 3 6 1015.3 1014.8 2.2
22/08:00pm 23.8 28.2 23.8 100 0.0 NNE 7 11 4 6 1015.1 1014.6 1.6
22/07:30pm 23.7 27.3 23.7 100 0.0 NNE 11 15 6 8 1014.9 1014.4 1.4
22/07:00pm 23.9 27.6 23.9 100 0.0 N 11 19 6 10 1014.8 1014.3 0.8
22/06:30pm 23.9 27.6 23.9 100 0.0 N 11 22 6 12 1014.6 1014.1 0.6
22/06:00pm 23.8 27.1 23.8 100 0.0 N 13 22 7 12 1014.3 1013.8 0.4
22/05:30pm 24.0 27.8 24.0 100 0.0 N 11 24 6 13 1014.1 1013.6 0.2
22/05:00pm 24.4 28.8 24.4 100 0.0 N 9 13 5 7 1013.9 1013.4 0.0
22/04:30pm 24.5 28.4 24.3 99 0.1 N 11 22 6 12 1013.8 1013.3 0.0
22/04:00pm 24.5 27.8 24.5 100 0.0 N 15 30 8 16 1013.8 1013.3 0.0
22/03:30pm 24.8 28.5 24.5 98 0.2 N 13 26 7 14 1013.6 1013.1 0.0
22/03:00pm 26.1 26.0 24.3 90 1.2 NNE 32 39 17 21 1013.5 1013.0 0.0
22/02:30pm 26.5 26.4 24.5 89 1.4 NNE 33 41 18 22 1013.5 1013.0 0.0
22/02:00pm 27.4 29.2 24.3 83 2.2 NNE 22 30 12 16 1013.7 1013.2 0.0
22/01:30pm 27.6 30.0 24.2 82 2.4 NNE 19 28 10 15 1013.9 1013.4 0.0
22/01:00pm 27.8 30.3 24.4 82 2.4 NNE 19 28 10 15 1014.3 1013.8 0.0
22/12:30pm 27.7 30.0 24.5 83 2.2 NNE 20 30 11 16 1014.6 1014.1 0.0
22/12:00pm 28.1 31.1 24.7 82 2.4 NNE 17 28 9 15 1014.9 1014.4 0.0
22/11:30am 28.8 32.5 25.2 81 2.5 NNE 15 26 8 14 1015.1 1014.6 0.0
22/11:00am 28.9 32.1 24.9 79 2.8 NNE 17 30 9 16 1015.3 1014.8 0.0
22/10:30am 29.0 32.9 25.4 81 2.5 NE 15 24 8 13 1015.5 1015.0 0.0
22/10:00am 27.8 31.3 25.4 87 1.7 NE 17 22 9 12 1015.7 1015.2 0.0
22/09:30am 27.3 31.0 25.1 88 1.5 NE 15 22 8 12 1015.8 1015.3 0.0
22/09:00am 27.9 31.3 25.3 86 1.8 NNE 17 28 9 15 1015.9 1015.4 2.4
22/08:30am 27.4 32.0 27.1 98 0.2 NNE 17 22 9 12 1015.9 1015.4 2.4
22/08:00am 25.3 30.6 25.3 100 0.0 NNW 7 13 4 7 1015.9 1015.4 2.4
22/07:56am 25.3 30.2 25.3 100 0.0 NNW 9 30 5 16 1015.9 1015.4 2.4
22/07:30am 24.8 24.0 24.6 99 0.1 NNE 37 43 20 23 1015.4 1014.9 2.4
22/07:00am 24.1 23.7 24.1 100 0.0 NNE 33 39 18 21 1015.2 1014.7 2.4
22/06:30am 24.5 24.0 24.5 100 0.0 NNE 35 44 19 24 1015.0 1014.5 2.4
22/06:00am 24.4 25.9 24.4 100 0.0 NE 24 33 13 18 1014.7 1014.2 2.4
22/05:30am 24.4 24.8 24.4 100 0.0 NE 30 43 16 23 1014.2 1013.7 2.4
22/05:00am 24.0 25.3 24.0 100 0.0 ENE 24 32 13 17 1014.2 1013.7 2.4
22/04:30am 24.0 23.8 24.0 100 0.0 ENE 32 44 17 24 1014.0 1013.5 2.4
22/04:00am 24.1 22.6 24.1 100 0.0 ENE 39 50 21 27 1013.6 1013.1 2.4
22/03:30am 24.0 23.2 24.0 100 0.0 ENE 35 44 19 24 1013.6 1013.1 2.4
22/03:00am 23.9 23.4 23.9 100 0.0 ENE 33 41 18 22 1013.8 1013.3 2.4
22/02:30am 23.9 23.0 23.9 100 0.0 NE 35 44 19 24 1013.7 1013.2 2.0
22/02:16am 23.7 24.1 23.7 100 0.0 NE 28 46 15 25 1013.8 1013.3 0.8
22/02:00am 23.8 26.7 23.8 100 0.0 NE 15 20 8 11 1014.1 1013.6 0.8
22/01:30am 23.9 24.0 23.9 100 0.0 NE 30 41 16 22 1014.3 1013.8 0.6
22/01:04am 24.4 26.7 24.4 100 0.0 NE 20 43 11 23 1014.5 1014.0 0.6
22/01:00am 24.2 27.3 24.2 100 0.0 NE 15 22 8 12 1014.6 1014.1 0.6
22/12:30am 23.4 24.0 23.4 100 0.0 E 26 32 14 17 1014.8 1014.3 0.6
22/12:00am 24.1 23.2 23.9 99 0.1 ENE 35 48 19 26 1014.8 1014.3 0.0
 
Date/Time
EST
Temp
°C
App
Temp
°C
Dew
Point
°C
Rel
Hum
%
Delta-T
°C
Wind Press
QNH
hPa
Press
MSL
hPa
Rain since
9am
mm
Dir  Spd
km/h
Gust
km/h
Spd
kts
Gust
kts
21/11:54pm 24.7 25.5 24.5 99 0.1 ENE 28 39 15 21 1014.9 1014.4 0.0
21/11:30pm 25.3 28.5 24.3 94 0.7 ENE 15 19 8 10 1015.1 1014.6 0.0
21/11:00pm 25.3 27.7 23.7 91 1.1 ENE 17 22 9 12 1015.3 1014.8 0.0
21/10:30pm 24.8 26.5 24.6 99 0.1 ENE 24 39 13 21 1015.5 1015.0 0.0
21/10:00pm 24.7 24.3 23.7 94 0.7 NE 32 43 17 23 1015.4 1014.9 0.0
21/09:30pm 25.5 27.6 24.1 92 1.0 NNE 20 33 11 18 1015.4 1014.9 0.0
21/09:00pm 26.2 28.0 23.5 85 1.8 ENE 20 30 11 16 1015.6 1015.1 0.0
21/08:30pm 25.9 27.3 23.6 87 1.6 ENE 22 28 12 15 1015.3 1014.8 0.0
21/08:00pm 25.5 26.8 24.1 92 1.0 ENE 24 32 13 17 1015.2 1014.7 0.0
21/07:30pm 25.1 26.2 24.4 96 0.5 E 26 32 14 17 1015.0 1014.5 0.0
21/07:00pm 24.9 25.0 24.6 98 0.2 E 32 35 17 19 1014.6 1014.1 0.0
21/06:30pm 25.4 25.4 24.4 94 0.7 ENE 32 41 17 22 1014.4 1013.9 0.0
21/06:00pm 25.5 25.4 24.3 93 0.8 ENE 32 39 17 21 1014.1 1013.6 0.0
21/05:30pm 25.6 27.6 24.0 91 1.1 NE 20 30 11 16 1014.1 1013.6 0.0
21/05:00pm 26.1 28.6 24.7 92 1.0 ENE 20 24 11 13 1014.0 1013.5 0.0
21/04:30pm 26.4 28.2 24.2 88 1.5 ENE 22 28 12 15 1014.0 1013.5 0.0
21/04:00pm 26.9 29.6 24.7 88 1.5 NE 19 26 10 14 1014.1 1013.6 0.0
21/03:30pm 27.1 29.2 23.1 79 2.7 ENE 17 22 9 12 1014.2 1013.7 0.0
21/03:00pm 28.2 31.3 24.2 79 2.8 ENE 15 19 8 10 1014.5 1014.0 0.0
21/02:30pm 27.9 31.5 23.7 78 2.9 NE 11 19 6 10 1014.6 1014.1 0.0

Latest Capital City Observations: Canberra | Sydney | Melbourne | Brisbane | Adelaide | Perth | Hobart | Darwin

Other Formats:

Comma delimited format used in spreadsheet applications
http://www.bom.gov.au/fwo/IDQ60901/IDQ60901.94584.axf

JavaScript Object Notation format (JSON) in row-major order
http://www.bom.gov.au/fwo/IDQ60901/IDQ60901.94584.json